Time;durP1;ratioP1;P1;durP2;ratioP2;P2;SDS_P1;SDS_P2;PMS_P1;PMS_P2;Temp;Humidity;BMP_temperature;BMP_pressure;BME280_temperature;BME280_humidity;BME280_pressure;Samples;Min_cycle;Max_cycle;Signal;HPM_P1;HPM_P2
2022/01/12 00:01:20;;;;;;;;;;;3.40;93.30;;;;;;5010005;28;19917;-86
2022/01/12 00:03:47;;;;;;;;;;;3.40;93.30;;;;;;4976721;28;19922;-86
2022/01/12 00:06:14;;;;;;;;;;;3.40;93.40;;;;;;4991868;28;19924;-86
2022/01/12 00:08:41;;;;;;;;;;;3.40;93.50;;;;;;4986549;28;19918;-86
2022/01/12 00:11:08;;;;;;;;;;;3.50;93.60;;;;;;4997545;28;19914;-85
2022/01/12 00:13:35;;;;;;;;;;;3.50;93.70;;;;;;4980991;28;19924;-85
2022/01/12 00:16:03;;;;;;;;;;;3.60;94.10;;;;;;5013941;28;20268;-85
2022/01/12 00:18:30;;;;;;;;;;;3.60;93.80;;;;;;4983403;28;20409;-86
2022/01/12 00:20:58;;;;;;;;;;;3.60;93.80;;;;;;4982685;28;19914;-86
2022/01/12 00:23:24;;;;;;;;;;;3.70;94.00;;;;;;4984335;28;19914;-85
2022/01/12 00:26:07;;;;;;;;;;;3.70;94.00;;;;;;5007226;28;20137;-85
2022/01/12 00:34:07;;;;;;;;;;;3.90;94.20;;;;;;4981194;28;19920;-86
2022/01/12 00:36:35;;;;;;;;;;;4.00;94.30;;;;;;4975621;28;20030;-86
2022/01/12 00:39:03;;;;;;;;;;;4.10;94.30;;;;;;5010532;28;19927;-86
2022/01/12 00:41:30;;;;;;;;;;;4.10;94.40;;;;;;4997306;28;20117;-85
2022/01/12 00:43:59;;;;;;;;;;;4.20;94.50;;;;;;5009847;28;20363;-85
2022/01/12 00:46:29;;;;;;;;;;;4.20;94.50;;;;;;4970284;28;19924;-85
2022/01/12 00:48:57;;;;;;;;;;;4.30;94.50;;;;;;4986728;28;19914;-85
2022/01/12 00:51:28;;;;;;;;;;;4.40;94.60;;;;;;4969946;28;19913;-85
2022/01/12 00:53:55;;;;;;;;;;;4.40;94.60;;;;;;4991266;28;19916;-85
2022/01/12 00:56:22;;;;;;;;;;;4.40;94.60;;;;;;5008098;28;19917;-85
2022/01/12 00:58:49;;;;;;;;;;;4.50;94.60;;;;;;4981458;28;20594;-85
2022/01/12 01:01:16;;;;;;;;;;;4.50;94.60;;;;;;4985925;28;19914;-85
2022/01/12 01:03:43;;;;;;;;;;;4.60;94.60;;;;;;4988762;28;20470;-85
2022/01/12 01:06:11;;;;;;;;;;;4.60;94.60;;;;;;4990352;28;19914;-85
2022/01/12 01:08:39;;;;;;;;;;;4.60;94.70;;;;;;4991050;28;20182;-86
2022/01/12 01:11:06;;;;;;;;;;;4.60;94.70;;;;;;5001431;28;19913;-85
2022/01/12 01:13:36;;;;;;;;;;;4.70;94.70;;;;;;5008749;28;20212;-86
2022/01/12 01:27:00;;;;;;;;;;;4.80;94.70;;;;;;5005313;28;20474;-85
2022/01/12 01:29:27;;;;;;;;;;;4.80;94.70;;;;;;4995220;28;19913;-85
2022/01/12 01:31:54;;;;;;;;;;;4.80;94.70;;;;;;4987226;28;20998;-86
2022/01/12 01:34:21;;;;;;;;;;;4.80;94.60;;;;;;4976012;28;19916;-85
2022/01/12 01:36:50;;;;;;;;;;;4.80;94.60;;;;;;4970904;28;20122;-85
2022/01/12 01:39:18;;;;;;;;;;;4.80;94.60;;;;;;5013205;28;20259;-85
2022/01/12 01:41:50;;;;;;;;;;;4.80;94.70;;;;;;4987301;28;20301;-85
2022/01/12 01:55:03;;;;;;;;;;;4.80;94.70;;;;;;4992393;28;20432;-85
2022/01/12 01:57:31;;;;;;;;;;;4.80;94.70;;;;;;4994406;28;19925;-85
2022/01/12 01:59:58;;;;;;;;;;;4.80;94.70;;;;;;4983499;28;20095;-85
2022/01/12 02:02:25;;;;;;;;;;;4.80;94.70;;;;;;4982425;28;20286;-85
2022/01/12 02:04:52;;;;;;;;;;;4.80;94.70;;;;;;4987059;28;20010;-85
2022/01/12 02:07:19;;;;;;;;;;;4.80;94.70;;;;;;4980359;28;19936;-85
2022/01/12 02:09:45;;;;;;;;;;;4.80;94.70;;;;;;4980574;28;20359;-85
2022/01/12 02:12:13;;;;;;;;;;;4.80;94.70;;;;;;4983961;28;19920;-85
2022/01/12 02:14:39;;;;;;;;;;;4.80;94.70;;;;;;4990970;28;19935;-85
2022/01/12 02:17:15;;;;;;;;;;;4.80;94.70;;;;;;4990878;28;19921;-85
2022/01/12 02:36:09;;;;;;;;;;;4.90;94.90;;;;;;4982835;28;20546;-85
2022/01/12 02:41:22;;;;;;;;;;;4.90;94.90;;;;;;4990115;28;20036;-85
2022/01/12 02:54:49;;;;;;;;;;;5.00;95.10;;;;;;4967880;28;19914;-85
2022/01/12 02:57:16;;;;;;;;;;;5.00;95.10;;;;;;4989532;28;19925;-85
2022/01/12 03:00:20;;;;;;;;;;;5.00;95.10;;;;;;4985888;28;19920;-85
2022/01/12 03:02:39;;;;;;;;;;;5.00;95.10;;;;;;4989190;28;20379;-85
2022/01/12 03:07:40;;;;;;;;;;;5.10;95.10;;;;;;4980112;28;19936;-85
2022/01/12 03:10:08;;;;;;;;;;;5.10;95.10;;;;;;4982201;28;20262;-85
2022/01/12 03:12:35;;;;;;;;;;;5.20;95.20;;;;;;4990204;28;19920;-85
2022/01/12 03:15:02;;;;;;;;;;;5.20;95.20;;;;;;4985102;28;19914;-85
2022/01/12 03:17:29;;;;;;;;;;;5.20;95.20;;;;;;4981262;28;20397;-84
2022/01/12 03:19:56;;;;;;;;;;;5.20;95.20;;;;;;4989255;28;20011;-84
2022/01/12 03:22:23;;;;;;;;;;;5.20;95.20;;;;;;5001515;28;20270;-85
2022/01/12 03:24:50;;;;;;;;;;;5.20;95.20;;;;;;4979386;28;19921;-85
2022/01/12 03:27:17;;;;;;;;;;;5.20;95.20;;;;;;4993388;28;19917;-85
2022/01/12 03:29:49;;;;;;;;;;;5.30;95.20;;;;;;4988280;28;20278;-85
2022/01/12 03:32:20;;;;;;;;;;;5.30;95.20;;;;;;4986558;28;19924;-85
2022/01/12 03:34:54;;;;;;;;;;;5.30;95.20;;;;;;4989358;28;19914;-85
2022/01/12 03:40:07;;;;;;;;;;;5.30;95.10;;;;;;4983817;28;20110;-85
2022/01/12 03:42:33;;;;;;;;;;;5.30;95.10;;;;;;4978535;28;19920;-85
2022/01/12 03:45:00;;;;;;;;;;;5.30;95.00;;;;;;4973240;28;19921;-85
2022/01/12 03:47:27;;;;;;;;;;;5.30;95.00;;;;;;4983455;28;19917;-85
2022/01/12 03:49:54;;;;;;;;;;;5.20;95.00;;;;;;4966606;28;21040;-85
2022/01/12 03:52:21;;;;;;;;;;;5.20;95.00;;;;;;4977591;28;19913;-86
2022/01/12 03:54:48;;;;;;;;;;;5.20;95.00;;;;;;4970016;28;20385;-85
2022/01/12 03:57:14;;;;;;;;;;;5.20;95.00;;;;;;4965810;28;20153;-85
2022/01/12 03:59:41;;;;;;;;;;;5.20;95.00;;;;;;4992608;28;19913;-85
2022/01/12 04:02:08;;;;;;;;;;;5.10;94.90;;;;;;4979339;28;19913;-85
2022/01/12 04:04:52;;;;;;;;;;;5.10;94.90;;;;;;4976130;28;19919;-85
2022/01/12 04:10:04;;;;;;;;;;;5.10;94.90;;;;;;4980007;28;20420;-85
2022/01/12 04:12:31;;;;;;;;;;;5.10;94.90;;;;;;4965216;28;20363;-85
2022/01/12 04:14:58;;;;;;;;;;;5.00;94.90;;;;;;4968202;28;20129;-86
2022/01/12 04:17:25;;;;;;;;;;;5.00;95.30;;;;;;4978339;28;20367;-85
2022/01/12 04:19:52;;;;;;;;;;;5.00;94.90;;;;;;4965909;28;20108;-85
2022/01/12 04:25:04;;;;;;;;;;;5.00;95.00;;;;;;4986722;28;19932;-85
2022/01/12 04:27:32;;;;;;;;;;;5.00;95.00;;;;;;4965063;28;19923;-85
2022/01/12 04:29:59;;;;;;;;;;;5.00;95.10;;;;;;4996466;28;19940;-85
2022/01/12 04:32:26;;;;;;;;;;;5.00;95.10;;;;;;4980096;28;19920;-85
2022/01/12 04:34:53;;;;;;;;;;;5.00;95.10;;;;;;4990147;28;20434;-85
2022/01/12 04:37:20;;;;;;;;;;;5.00;95.10;;;;;;4999737;28;19917;-85
2022/01/12 04:39:47;;;;;;;;;;;5.00;95.10;;;;;;4991712;28;19914;-85
2022/01/12 04:42:14;;;;;;;;;;;5.00;95.10;;;;;;4977294;28;19918;-86
2022/01/12 04:44:45;;;;;;;;;;;5.00;95.10;;;;;;4993421;28;20286;-86
2022/01/12 04:47:27;;;;;;;;;;;5.00;95.10;;;;;;5015657;28;19937;-85
2022/01/12 04:49:56;;;;;;;;;;;5.00;95.10;;;;;;4996330;28;20096;-85
2022/01/12 04:52:23;;;;;;;;;;;5.00;95.10;;;;;;4985925;28;19914;-85
2022/01/12 04:54:50;;;;;;;;;;;5.00;95.10;;;;;;4986928;28;19922;-85
2022/01/12 04:57:17;;;;;;;;;;;5.00;95.10;;;;;;4989555;28;20379;-85
2022/01/12 05:00:01;;;;;;;;;;;5.00;95.10;;;;;;4991023;28;19920;-85
2022/01/12 05:08:12;;;;;;;;;;;5.00;95.10;;;;;;4997036;28;20212;-86
2022/01/12 05:13:26;;;;;;;;;;;5.00;95.20;;;;;;4984798;28;19919;-86
2022/01/12 05:15:53;;;;;;;;;;;5.00;95.30;;;;;;4992859;28;19913;-86
2022/01/12 05:18:20;;;;;;;;;;;5.00;95.20;;;;;;4990783;28;19924;-86
2022/01/12 05:20:47;;;;;;;;;;;5.00;95.30;;;;;;5007801;28;19940;-86
2022/01/12 05:23:14;;;;;;;;;;;5.10;95.30;;;;;;5015253;28;19917;-85
2022/01/12 05:25:41;;;;;;;;;;;5.10;95.30;;;;;;4992834;28;19918;-86
2022/01/12 05:28:08;;;;;;;;;;;5.10;95.30;;;;;;4992797;28;19917;-86
2022/01/12 05:30:35;;;;;;;;;;;5.10;95.30;;;;;;4997932;28;19914;-86
2022/01/12 05:33:01;;;;;;;;;;;5.10;95.30;;;;;;4985103;28;20003;-86
2022/01/12 05:35:32;;;;;;;;;;;5.10;95.40;;;;;;4990022;28;19932;-86
2022/01/12 05:38:02;;;;;;;;;;;5.10;95.40;;;;;;4960797;28;20109;-86
2022/01/12 05:40:30;;;;;;;;;;;5.10;95.40;;;;;;4956370;28;19924;-86
2022/01/12 05:42:59;;;;;;;;;;;5.20;95.40;;;;;;4977306;28;19914;-86
2022/01/12 05:45:27;;;;;;;;;;;5.10;95.40;;;;;;4970727;28;20101;-86
2022/01/12 05:50:22;;;;;;;;;;;5.10;95.40;;;;;;4970192;28;19918;-86
2022/01/12 05:52:48;;;;;;;;;;;5.20;95.40;;;;;;4961038;28;19914;-86
2022/01/12 05:55:15;;;;;;;;;;;5.20;95.40;;;;;;4980358;28;19918;-86
2022/01/12 05:57:42;;;;;;;;;;;5.20;95.40;;;;;;4947891;28;19921;-86
2022/01/12 06:00:11;;;;;;;;;;;5.20;95.50;;;;;;4980297;28;19926;-86
2022/01/12 06:02:37;;;;;;;;;;;5.20;95.50;;;;;;4929676;28;20442;-86
2022/01/12 06:05:05;;;;;;;;;;;5.30;95.50;;;;;;4977011;28;19929;-85
2022/01/12 06:07:31;;;;;;;;;;;5.20;95.50;;;;;;4978327;28;20101;-85
2022/01/12 06:09:58;;;;;;;;;;;5.20;95.50;;;;;;4946055;28;19914;-85
2022/01/12 06:12:25;;;;;;;;;;;5.30;95.50;;;;;;4956983;28;20417;-85
2022/01/12 06:14:52;;;;;;;;;;;5.30;95.50;;;;;;4962449;28;19920;-85
2022/01/12 06:17:19;;;;;;;;;;;5.30;95.50;;;;;;4931756;28;19918;-85
2022/01/12 06:19:46;;;;;;;;;;;5.30;95.60;;;;;;4980005;28;19933;-85
2022/01/12 06:22:13;;;;;;;;;;;5.30;95.50;;;;;;4955086;28;19921;-85
2022/01/12 06:24:39;;;;;;;;;;;5.40;95.60;;;;;;4948762;28;19922;-85
2022/01/12 06:27:09;;;;;;;;;;;5.40;95.60;;;;;;4969395;28;19920;-85
2022/01/12 06:32:09;;;;;;;;;;;5.40;95.50;;;;;;4971807;28;19913;-85
2022/01/12 06:34:36;;;;;;;;;;;5.40;95.60;;;;;;4972788;28;20543;-85
2022/01/12 06:37:03;;;;;;;;;;;5.40;95.60;;;;;;4997567;28;19927;-85
2022/01/12 06:39:29;;;;;;;;;;;5.40;95.60;;;;;;4984971;28;20162;-85
2022/01/12 06:41:56;;;;;;;;;;;5.40;95.60;;;;;;4983828;28;19918;-85
2022/01/12 06:44:25;;;;;;;;;;;5.40;95.50;;;;;;4997240;28;19943;-86
2022/01/12 06:46:53;;;;;;;;;;;5.40;95.60;;;;;;4994678;28;19912;-85
2022/01/12 06:49:20;;;;;;;;;;;5.50;95.60;;;;;;4979725;28;19917;-85
2022/01/12 06:51:47;;;;;;;;;;;5.50;95.60;;;;;;4985959;28;19918;-86
2022/01/12 06:54:14;;;;;;;;;;;5.50;95.60;;;;;;4993873;28;19917;-85
2022/01/12 06:56:41;;;;;;;;;;;5.50;95.60;;;;;;4986779;28;19928;-85
2022/01/12 06:59:08;;;;;;;;;;;5.50;95.60;;;;;;4990811;28;19917;-86
2022/01/12 07:01:35;;;;;;;;;;;5.50;95.60;;;;;;4994402;28;20310;-85
2022/01/12 07:04:02;;;;;;;;;;;5.50;95.50;;;;;;4984200;28;19917;-86
2022/01/12 07:06:29;;;;;;;;;;;5.50;95.60;;;;;;4994730;28;19913;-86
2022/01/12 07:08:56;;;;;;;;;;;5.50;95.50;;;;;;4994956;28;19919;-85
2022/01/12 07:11:23;;;;;;;;;;;5.50;95.60;;;;;;4983083;28;20395;-85
2022/01/12 07:13:49;;;;;;;;;;;5.50;95.60;;;;;;4980777;28;19914;-85
2022/01/12 07:16:16;;;;;;;;;;;5.50;95.60;;;;;;4993597;28;19913;-86
2022/01/12 07:18:43;;;;;;;;;;;5.50;95.60;;;;;;4963400;28;19914;-85
2022/01/12 07:21:10;;;;;;;;;;;5.50;95.60;;;;;;4998908;28;20302;-86
2022/01/12 07:23:37;;;;;;;;;;;5.50;95.60;;;;;;4992103;28;20014;-86
2022/01/12 07:26:03;;;;;;;;;;;5.50;95.60;;;;;;4987757;28;20201;-86
2022/01/12 07:28:30;;;;;;;;;;;5.60;95.60;;;;;;4967793;28;20714;-86
2022/01/12 07:30:57;;;;;;;;;;;5.50;95.60;;;;;;5010522;28;20305;-85
2022/01/12 07:33:25;;;;;;;;;;;5.60;95.60;;;;;;4978301;28;20122;-85
2022/01/12 07:35:53;;;;;;;;;;;5.50;95.60;;;;;;5006488;28;20367;-86
2022/01/12 07:38:19;;;;;;;;;;;5.50;95.60;;;;;;4987034;28;20136;-86
2022/01/12 07:40:46;;;;;;;;;;;5.60;95.90;;;;;;4988987;28;19925;-86
2022/01/12 07:43:13;;;;;;;;;;;5.60;95.60;;;;;;4986644;28;19917;-86
2022/01/12 07:45:40;;;;;;;;;;;5.60;95.60;;;;;;4973689;28;19913;-86
2022/01/12 07:48:07;;;;;;;;;;;5.60;95.70;;;;;;4985130;28;19913;-86
2022/01/12 07:50:34;;;;;;;;;;;5.60;95.70;;;;;;4982844;28;20012;-86
2022/01/12 07:53:01;;;;;;;;;;;5.60;95.70;;;;;;4987791;28;19914;-86
2022/01/12 07:55:28;;;;;;;;;;;5.60;95.70;;;;;;4999726;28;19914;-86
2022/01/12 07:57:54;;;;;;;;;;;5.60;95.70;;;;;;4979879;28;19922;-86
2022/01/12 08:00:22;;;;;;;;;;;5.60;95.70;;;;;;4969139;28;19924;-85
2022/01/12 08:02:51;;;;;;;;;;;5.60;95.70;;;;;;4983915;28;19920;-85
2022/01/12 08:05:19;;;;;;;;;;;5.60;95.70;;;;;;4972078;28;20259;-85
2022/01/12 08:07:47;;;;;;;;;;;5.60;95.70;;;;;;5011925;28;19917;-85
2022/01/12 08:10:14;;;;;;;;;;;5.70;95.80;;;;;;4991342;28;20194;-85
2022/01/12 08:12:41;;;;;;;;;;;5.60;95.70;;;;;;4996930;28;19917;-85
2022/01/12 08:15:09;;;;;;;;;;;5.70;95.70;;;;;;4997469;28;20095;-85
2022/01/12 08:17:36;;;;;;;;;;;5.70;95.80;;;;;;4969031;28;19913;-86
2022/01/12 08:20:04;;;;;;;;;;;5.70;95.80;;;;;;4969672;28;19925;-86
2022/01/12 08:22:31;;;;;;;;;;;5.70;95.80;;;;;;5013281;28;19913;-86
2022/01/12 08:24:58;;;;;;;;;;;5.70;95.80;;;;;;4983728;28;20410;-86
2022/01/12 08:27:25;;;;;;;;;;;5.70;95.80;;;;;;4996645;28;19913;-86
2022/01/12 08:29:59;;;;;;;;;;;5.80;95.80;;;;;;4988220;28;19921;-86
2022/01/12 08:32:26;;;;;;;;;;;5.70;95.80;;;;;;4975566;28;19928;-86
2022/01/12 08:34:53;;;;;;;;;;;5.80;95.80;;;;;;4989173;28;20302;-85
2022/01/12 08:37:20;;;;;;;;;;;5.80;95.80;;;;;;4985066;28;19913;-85
2022/01/12 08:39:47;;;;;;;;;;;5.80;95.80;;;;;;4979912;28;19922;-85
2022/01/12 08:42:14;;;;;;;;;;;5.80;95.80;;;;;;4995018;28;19995;-85
2022/01/12 08:44:41;;;;;;;;;;;5.80;95.80;;;;;;4989430;28;20287;-85
2022/01/12 08:47:08;;;;;;;;;;;5.80;95.80;;;;;;4976530;28;20050;-86
2022/01/12 08:49:35;;;;;;;;;;;5.80;95.80;;;;;;4994452;28;19913;-86
2022/01/12 08:52:02;;;;;;;;;;;5.80;95.80;;;;;;4979471;28;20015;-86
2022/01/12 08:54:29;;;;;;;;;;;5.90;95.90;;;;;;4991025;28;19921;-85
2022/01/12 08:56:56;;;;;;;;;;;5.90;95.90;;;;;;4989358;28;20022;-85
2022/01/12 08:59:23;;;;;;;;;;;5.90;95.90;;;;;;4990496;28;19922;-86
2022/01/12 09:01:50;;;;;;;;;;;5.90;95.90;;;;;;4981497;28;19924;-86
2022/01/12 09:04:17;;;;;;;;;;;5.90;95.90;;;;;;4972962;28;19928;-86
2022/01/12 09:06:44;;;;;;;;;;;6.00;95.90;;;;;;4976728;28;19913;-85
2022/01/12 09:09:10;;;;;;;;;;;6.00;96.00;;;;;;5008303;28;19924;-85
2022/01/12 09:11:37;;;;;;;;;;;6.00;95.90;;;;;;4995036;28;19914;-86
2022/01/12 09:14:04;;;;;;;;;;;6.00;95.90;;;;;;4982804;28;20194;-86
2022/01/12 09:16:31;;;;;;;;;;;6.00;96.00;;;;;;4989980;28;20371;-86
2022/01/12 09:18:58;;;;;;;;;;;6.10;96.00;;;;;;4963761;28;19943;-86
2022/01/12 09:21:25;;;;;;;;;;;6.10;96.00;;;;;;4990749;28;19917;-86
2022/01/12 09:23:52;;;;;;;;;;;6.10;96.00;;;;;;4978286;28;19914;-86
2022/01/12 09:26:19;;;;;;;;;;;6.10;96.00;;;;;;4985783;28;19928;-85
2022/01/12 09:28:47;;;;;;;;;;;6.20;96.00;;;;;;4986307;28;19913;-85
2022/01/12 09:31:14;;;;;;;;;;;6.20;96.10;;;;;;4992430;28;20568;-85
2022/01/12 09:33:41;;;;;;;;;;;6.20;96.10;;;;;;4974819;28;20406;-85
2022/01/12 09:36:08;;;;;;;;;;;6.20;96.10;;;;;;4990325;28;20062;-85
2022/01/12 09:38:35;;;;;;;;;;;6.20;96.10;;;;;;4977763;28;19914;-85
2022/01/12 09:41:02;;;;;;;;;;;6.30;96.20;;;;;;4989401;28;20120;-86
2022/01/12 09:43:33;;;;;;;;;;;6.40;96.20;;;;;;4996107;28;19914;-85
2022/01/12 09:46:00;;;;;;;;;;;6.40;96.20;;;;;;4986242;28;20003;-85
2022/01/12 09:48:33;;;;;;;;;;;6.40;96.20;;;;;;4984084;28;19937;-85
2022/01/12 09:51:03;;;;;;;;;;;6.40;96.20;;;;;;4983126;28;20314;-85
2022/01/12 09:53:31;;;;;;;;;;;6.50;96.30;;;;;;4983336;28;20290;-86
2022/01/12 09:55:58;;;;;;;;;;;6.50;96.20;;;;;;4980014;28;19914;-85
2022/01/12 09:58:30;;;;;;;;;;;6.50;96.20;;;;;;4992498;28;19916;-85
2022/01/12 10:00:58;;;;;;;;;;;6.50;96.20;;;;;;4995759;28;19917;-85
2022/01/12 10:03:26;;;;;;;;;;;6.60;96.20;;;;;;4991102;28;20524;-86
2022/01/12 10:05:55;;;;;;;;;;;6.60;96.50;;;;;;4978681;28;20390;-85
2022/01/12 10:08:22;;;;;;;;;;;6.60;96.30;;;;;;4996332;28;19913;-86
2022/01/12 10:11:03;;;;;;;;;;;6.70;96.30;;;;;;4978113;28;19921;-86
2022/01/12 10:13:30;;;;;;;;;;;6.70;96.30;;;;;;4993999;28;19921;-86
2022/01/12 10:15:57;;;;;;;;;;;6.80;96.40;;;;;;4990997;28;19913;-86
2022/01/12 10:18:24;;;;;;;;;;;6.80;96.40;;;;;;4998816;28;19921;-86
2022/01/12 10:20:51;;;;;;;;;;;6.90;96.30;;;;;;5002410;28;19933;-85
2022/01/12 10:23:21;;;;;;;;;;;6.90;96.30;;;;;;4978619;28;20297;-85
2022/01/12 10:25:48;;;;;;;;;;;6.90;96.30;;;;;;4981385;28;19913;-85
2022/01/12 10:28:17;;;;;;;;;;;6.90;96.30;;;;;;4996414;28;19947;-85
2022/01/12 10:30:54;;;;;;;;;;;6.90;96.30;;;;;;4994328;28;19921;-85
2022/01/12 10:33:25;;;;;;;;;;;7.00;96.30;;;;;;4996752;28;19936;-85
2022/01/12 10:35:54;;;;;;;;;;;7.00;96.40;;;;;;4991513;28;20382;-85
2022/01/12 10:38:22;;;;;;;;;;;7.00;96.40;;;;;;5012758;28;19920;-85
2022/01/12 10:40:53;;;;;;;;;;;7.10;96.50;;;;;;4972517;28;19925;-85
2022/01/12 10:43:26;;;;;;;;;;;7.10;96.50;;;;;;4991340;28;19917;-85
2022/01/12 10:45:52;;;;;;;;;;;7.20;96.60;;;;;;4994226;28;19914;-85
2022/01/12 10:48:19;;;;;;;;;;;7.20;96.60;;;;;;4986544;28;19914;-85
2022/01/12 10:50:56;;;;;;;;;;;7.30;96.50;;;;;;4997225;28;19919;-85
2022/01/12 10:53:27;;;;;;;;;;;7.30;96.50;;;;;;4979069;28;19918;-85
2022/01/12 10:56:03;;;;;;;;;;;7.30;96.40;;;;;;4977459;28;19914;-85
2022/01/12 10:58:31;;;;;;;;;;;7.40;96.40;;;;;;4984748;28;20658;-85
2022/01/12 11:00:58;;;;;;;;;;;7.40;96.40;;;;;;4993888;28;19931;-85
2022/01/12 11:03:25;;;;;;;;;;;7.40;96.70;;;;;;5011768;28;20358;-85
2022/01/12 11:05:53;;;;;;;;;;;7.40;96.40;;;;;;4991412;28;19924;-85
2022/01/12 11:08:22;;;;;;;;;;;7.40;96.40;;;;;;4985148;28;20369;-85
2022/01/12 11:10:49;;;;;;;;;;;7.40;96.40;;;;;;4994104;28;19922;-85
2022/01/12 11:13:16;;;;;;;;;;;7.40;96.30;;;;;;4979786;28;20126;-85
2022/01/12 11:15:43;;;;;;;;;;;7.40;96.30;;;;;;4990313;28;20286;-85
2022/01/12 11:18:10;;;;;;;;;;;7.50;96.30;;;;;;4986307;28;20103;-84
2022/01/12 11:20:39;;;;;;;;;;;7.50;96.30;;;;;;4992662;28;20110;-85
2022/01/12 11:23:07;;;;;;;;;;;7.50;96.30;;;;;;4980191;28;19981;-85
2022/01/12 11:25:35;;;;;;;;;;;7.50;96.30;;;;;;4983352;28;19913;-85
2022/01/12 11:28:22;;;;;;;;;;;7.50;96.30;;;;;;4978741;28;20263;-85
2022/01/12 11:30:53;;;;;;;;;;;7.50;96.30;;;;;;4982552;28;19914;-85
2022/01/12 11:33:40;;;;;;;;;;;7.50;96.40;;;;;;4986877;28;19922;-85
2022/01/12 11:36:16;;;;;;;;;;;7.60;96.40;;;;;;4990842;28;20053;-85
2022/01/12 11:38:47;;;;;;;;;;;7.60;96.80;;;;;;4972635;28;19920;-85
2022/01/12 11:41:16;;;;;;;;;;;7.70;96.40;;;;;;4992451;28;19921;-85
2022/01/12 11:43:44;;;;;;;;;;;7.70;96.40;;;;;;4984451;28;20278;-84
2022/01/12 11:46:13;;;;;;;;;;;7.70;96.40;;;;;;4986328;28;20110;-84
2022/01/12 11:48:43;;;;;;;;;;;7.70;96.40;;;;;;4993365;28;19923;-84
2022/01/12 11:51:10;;;;;;;;;;;7.70;96.40;;;;;;4984826;28;20026;-85
2022/01/12 11:53:44;;;;;;;;;;;7.80;96.50;;;;;;4978906;28;20561;-85
2022/01/12 11:56:12;;;;;;;;;;;7.80;96.50;;;;;;4987964;28;19919;-85
2022/01/12 11:58:49;;;;;;;;;;;7.90;96.50;;;;;;4976110;28;19920;-85
2022/01/12 12:01:16;;;;;;;;;;;7.90;96.50;;;;;;4993871;28;20100;-85
2022/01/12 12:03:54;;;;;;;;;;;7.90;96.50;;;;;;4991605;28;19925;-85
2022/01/12 12:06:21;;;;;;;;;;;7.90;96.40;;;;;;5009104;28;19917;-85
2022/01/12 12:09:07;;;;;;;;;;;8.00;96.40;;;;;;4976418;28;19922;-86
2022/01/12 12:11:34;;;;;;;;;;;7.90;96.50;;;;;;4983773;28;19918;-86
2022/01/12 12:14:05;;;;;;;;;;;8.00;96.40;;;;;;4965735;28;19951;-86
2022/01/12 12:16:32;;;;;;;;;;;7.90;96.30;;;;;;4980945;28;20377;-85
2022/01/12 12:19:00;;;;;;;;;;;7.90;96.60;;;;;;4980520;28;20194;-85
2022/01/12 12:21:27;;;;;;;;;;;7.90;96.30;;;;;;4978851;28;19910;-85
2022/01/12 12:23:54;;;;;;;;;;;8.00;96.30;;;;;;4991411;28;20117;-85
2022/01/12 12:26:22;;;;;;;;;;;7.90;96.30;;;;;;4981175;28;19913;-85
2022/01/12 12:28:53;;;;;;;;;;;8.00;96.30;;;;;;4973537;28;19928;-85
2022/01/12 12:31:24;;;;;;;;;;;8.00;96.30;;;;;;4993328;28;19920;-85
2022/01/12 12:34:03;;;;;;;;;;;7.90;96.20;;;;;;4987772;28;19917;-85
2022/01/12 12:36:31;;;;;;;;;;;8.00;96.20;;;;;;4995543;28;19925;-85
2022/01/12 12:39:05;;;;;;;;;;;8.00;96.20;;;;;;4983087;28;20099;-85
2022/01/12 12:41:39;;;;;;;;;;;8.00;96.20;;;;;;4978880;28;19918;-85
2022/01/12 12:44:07;;;;;;;;;;;7.90;96.20;;;;;;4978138;28;21027;-85
2022/01/12 12:46:34;;;;;;;;;;;8.00;96.20;;;;;;4992194;28;19920;-85
2022/01/12 12:49:06;;;;;;;;;;;7.90;96.10;;;;;;4972667;28;19921;-85
2022/01/12 12:51:33;;;;;;;;;;;7.90;96.10;;;;;;4993921;28;20553;-85
2022/01/12 12:54:00;;;;;;;;;;;7.90;96.10;;;;;;4993770;28;19940;-84
2022/01/12 12:56:29;;;;;;;;;;;7.90;96.10;;;;;;4988582;28;19917;-84
2022/01/12 12:58:56;;;;;;;;;;;7.90;96.10;;;;;;4974741;28;19928;-85
2022/01/12 13:01:24;;;;;;;;;;;7.90;96.10;;;;;;4998526;28;19920;-84
2022/01/12 13:03:58;;;;;;;;;;;7.90;96.10;;;;;;5005003;28;20322;-85
2022/01/12 13:06:29;;;;;;;;;;;7.90;96.10;;;;;;5000083;28;19937;-85
2022/01/12 13:09:03;;;;;;;;;;;7.90;96.10;;;;;;4991524;28;19919;-85
2022/01/12 13:11:32;;;;;;;;;;;7.90;96.10;;;;;;4991551;28;19928;-85
2022/01/12 13:14:00;;;;;;;;;;;7.90;96.10;;;;;;4985161;28;20020;-85
2022/01/12 13:16:27;;;;;;;;;;;7.90;96.10;;;;;;4978236;28;20440;-85
2022/01/12 13:21:07;;;;;;;;;;;7.90;96.10;;;;;;4992970;28;19920;-85
2022/01/12 13:21:44;;;;;;;;;;;7.90;96.20;;;;;;4995520;28;19919;-85
2022/01/12 13:24:11;;;;;;;;;;;8.00;96.20;;;;;;4985344;28;19948;-85
2022/01/12 13:26:38;;;;;;;;;;;8.00;96.20;;;;;;5013751;28;19922;-85
2022/01/12 13:29:07;;;;;;;;;;;8.00;96.10;;;;;;4974183;28;20015;-85
2022/01/12 13:31:34;;;;;;;;;;;8.00;96.10;;;;;;4984825;28;19913;-85
2022/01/12 13:34:02;;;;;;;;;;;8.00;96.00;;;;;;4996902;28;20517;-85
2022/01/12 13:36:30;;;;;;;;;;;8.00;96.00;;;;;;4994180;28;19928;-85
2022/01/12 13:39:06;;;;;;;;;;;7.90;96.00;;;;;;4998011;28;20452;-85
2022/01/12 13:41:34;;;;;;;;;;;7.90;96.00;;;;;;4999045;28;19914;-85
2022/01/12 13:44:05;;;;;;;;;;;7.90;95.90;;;;;;4997134;28;20103;-85
2022/01/12 13:46:44;;;;;;;;;;;7.90;95.90;;;;;;4986531;28;19920;-84
2022/01/12 13:51:42;;;;;;;;;;;7.90;96.00;;;;;;4995863;28;19927;-85
2022/01/12 13:54:13;;;;;;;;;;;7.90;96.00;;;;;;4996606;28;19948;-85
2022/01/12 13:56:44;;;;;;;;;;;7.90;96.00;;;;;;4997236;28;19914;-85
2022/01/12 13:59:12;;;;;;;;;;;7.90;96.00;;;;;;4968700;28;20307;-85
2022/01/12 14:01:41;;;;;;;;;;;7.90;96.00;;;;;;4983872;28;20354;-84
2022/01/12 14:04:13;;;;;;;;;;;8.00;96.00;;;;;;5012411;28;20121;-84
2022/01/12 14:06:41;;;;;;;;;;;7.90;96.00;;;;;;4999030;28;20525;-84
2022/01/12 14:09:21;;;;;;;;;;;7.90;96.00;;;;;;4979147;28;20494;-84
2022/01/12 14:11:49;;;;;;;;;;;8.00;96.00;;;;;;4984053;28;19921;-84
2022/01/12 14:14:16;;;;;;;;;;;8.00;96.00;;;;;;4994549;28;19913;-84
2022/01/12 14:16:43;;;;;;;;;;;8.00;96.00;;;;;;4973071;28;19919;-85
2022/01/12 14:19:11;;;;;;;;;;;8.00;96.00;;;;;;4988323;28;19913;-84
2022/01/12 14:21:38;;;;;;;;;;;8.00;96.00;;;;;;4997718;28;20366;-85
2022/01/12 14:24:06;;;;;;;;;;;7.90;96.00;;;;;;4996123;28;19928;-85
2022/01/12 14:26:41;;;;;;;;;;;7.90;96.00;;;;;;4990296;28;19920;-85
2022/01/12 14:29:11;;;;;;;;;;;7.90;95.90;;;;;;4993660;28;20211;-84
2022/01/12 14:31:39;;;;;;;;;;;7.90;95.90;;;;;;4998222;28;19924;-85
2022/01/12 14:34:06;;;;;;;;;;;7.90;95.90;;;;;;4981973;28;19914;-85
2022/01/12 14:36:33;;;;;;;;;;;7.90;95.90;;;;;;4979361;28;19928;-85
2022/01/12 14:39:00;;;;;;;;;;;7.90;95.90;;;;;;4992467;28;20294;-85
2022/01/12 14:41:26;;;;;;;;;;;7.80;95.80;;;;;;4975075;28;19913;-85
2022/01/12 14:43:53;;;;;;;;;;;7.80;95.80;;;;;;4995470;28;20736;-85
2022/01/12 14:46:21;;;;;;;;;;;7.80;95.70;;;;;;4986816;28;20310;-85
2022/01/12 14:48:48;;;;;;;;;;;7.80;95.70;;;;;;4964575;28;20642;-85
2022/01/12 14:51:15;;;;;;;;;;;7.70;95.70;;;;;;4994937;28;20385;-85
2022/01/12 14:53:42;;;;;;;;;;;7.80;95.70;;;;;;4987295;28;19927;-85
2022/01/12 14:56:09;;;;;;;;;;;7.70;95.70;;;;;;4988703;28;20310;-85
2022/01/12 14:58:36;;;;;;;;;;;7.70;95.80;;;;;;4992298;28;20349;-85
2022/01/12 15:01:03;;;;;;;;;;;7.70;95.80;;;;;;4998135;28;19944;-85
2022/01/12 15:03:30;;;;;;;;;;;7.70;95.80;;;;;;4972292;28;19932;-85
2022/01/12 15:06:04;;;;;;;;;;;7.70;95.80;;;;;;4997256;28;19913;-85
2022/01/12 15:08:31;;;;;;;;;;;7.70;95.80;;;;;;4991119;28;20278;-85
2022/01/12 15:10:58;;;;;;;;;;;7.70;95.80;;;;;;4996551;28;20277;-85
2022/01/12 15:13:28;;;;;;;;;;;7.70;95.80;;;;;;4991186;28;19914;-85
2022/01/12 15:15:56;;;;;;;;;;;7.60;95.70;;;;;;5008745;28;19918;-85
2022/01/12 15:18:25;;;;;;;;;;;7.60;95.70;;;;;;4975802;28;19921;-85
2022/01/12 15:20:52;;;;;;;;;;;7.60;95.70;;;;;;4997693;28;19920;-85
2022/01/12 15:23:19;;;;;;;;;;;7.60;95.60;;;;;;4999528;28;20742;-85
2022/01/12 15:25:47;;;;;;;;;;;7.60;95.60;;;;;;4982390;28;19922;-85
2022/01/12 15:28:14;;;;;;;;;;;7.50;95.60;;;;;;4998510;28;20382;-85
2022/01/12 15:30:41;;;;;;;;;;;7.50;95.60;;;;;;4995098;28;20116;-85
2022/01/12 15:33:09;;;;;;;;;;;7.50;95.60;;;;;;4979811;28;19920;-85
2022/01/12 15:35:37;;;;;;;;;;;7.50;95.60;;;;;;4983083;28;19932;-85
2022/01/12 15:38:04;;;;;;;;;;;7.50;96.00;;;;;;4995238;28;19943;-85
2022/01/12 15:40:32;;;;;;;;;;;7.40;95.60;;;;;;4990904;28;19914;-85
2022/01/12 15:42:58;;;;;;;;;;;7.40;95.60;;;;;;4994975;28;19947;-85
2022/01/12 15:45:25;;;;;;;;;;;7.40;95.50;;;;;;4988458;28;19918;-85
2022/01/12 15:47:52;;;;;;;;;;;7.40;95.60;;;;;;4958783;28;19921;-85
2022/01/12 15:50:20;;;;;;;;;;;7.40;95.60;;;;;;4976358;28;19932;-85
2022/01/12 15:52:47;;;;;;;;;;;7.30;95.60;;;;;;4988833;28;19936;-85
2022/01/12 15:55:13;;;;;;;;;;;7.30;95.60;;;;;;4982384;28;20686;-85
2022/01/12 15:57:40;;;;;;;;;;;7.30;95.60;;;;;;4993429;28;19918;-85
2022/01/12 16:00:08;;;;;;;;;;;7.30;95.60;;;;;;4993883;28;19922;-85
2022/01/12 16:02:35;;;;;;;;;;;7.30;95.60;;;;;;4985749;28;19914;-85